Time;durP1;ratioP1;P1;durP2;ratioP2;P2;SDS_P1;SDS_P2;PMS_P1;PMS_P2;Temp;Humidity;BMP_temperature;BMP_pressure;BME280_temperature;BME280_humidity;BME280_pressure;Samples;Min_cycle;Max_cycle;Signal;HPM_P1;HPM_P2
2021/11/30 00:01:46;;;;;;;0.20;0.20;;;;;;;;;;5028238;28;20208;-66
2021/11/30 00:04:14;;;;;;;0.20;0.20;;;;;;;;;;5036506;28;20346;-66
2021/11/30 00:06:40;;;;;;;0.20;0.20;;;;;;;;;;5040909;28;20220;-66
2021/11/30 00:09:23;;;;;;;0.20;0.20;;;;;;;;;;5043654;28;20234;-65
2021/11/30 00:11:50;;;;;;;0.20;0.20;;;;;;;;;;5030585;28;20201;-66
2021/11/30 00:14:17;;;;;;;0.20;0.20;;;;;;;;;;5037772;28;20211;-66
2021/11/30 00:16:43;;;;;;;0.20;0.20;;;;;;;;;;5030534;28;20245;-65
2021/11/30 00:19:10;;;;;;;0.20;0.20;;;;;;;;;;5030762;28;20206;-67
2021/11/30 00:21:36;;;;;;;0.20;0.20;;;;;;;;;;5024289;28;20202;-67
2021/11/30 00:24:03;;;;;;;0.20;0.20;;;;;;;;;;5024431;28;20351;-67
2021/11/30 00:26:29;;;;;;;0.20;0.20;;;;;;;;;;5027416;28;20493;-66
2021/11/30 00:28:57;;;;;;;0.20;0.20;;;;;;;;;;5034447;28;20254;-64
2021/11/30 00:31:24;;;;;;;0.10;0.10;;;;;;;;;;5025607;28;20249;-66
2021/11/30 00:33:50;;;;;;;0.20;0.20;;;;;;;;;;5035722;28;20233;-66
2021/11/30 00:36:17;;;;;;;0.20;0.20;;;;;;;;;;5039059;28;20267;-67
2021/11/30 00:38:44;;;;;;;0.20;0.20;;;;;;;;;;5042228;28;20202;-67
2021/11/30 00:41:10;;;;;;;0.10;0.10;;;;;;;;;;5043573;28;20213;-67
2021/11/30 00:43:37;;;;;;;0.10;0.10;;;;;;;;;;5025403;28;20225;-66
2021/11/30 00:46:12;;;;;;;0.40;0.40;;;;;;;;;;5023666;28;20209;-66
2021/11/30 00:48:38;;;;;;;0.20;0.20;;;;;;;;;;5029434;28;20446;-66
2021/11/30 00:51:08;;;;;;;0.20;0.20;;;;;;;;;;5033459;28;20212;-66
2021/11/30 00:53:34;;;;;;;0.20;0.20;;;;;;;;;;5032867;28;20607;-67
2021/11/30 00:56:01;;;;;;;0.20;0.20;;;;;;;;;;5035222;28;20205;-65
2021/11/30 00:58:27;;;;;;;0.20;0.20;;;;;;;;;;5030869;28;20206;-65
2021/11/30 01:00:54;;;;;;;0.20;0.20;;;;;;;;;;5037570;28;20526;-67
2021/11/30 01:03:22;;;;;;;0.20;0.20;;;;;;;;;;5033080;28;20213;-67
2021/11/30 01:05:48;;;;;;;0.10;0.10;;;;;;;;;;5038190;28;20257;-66
2021/11/30 01:08:14;;;;;;;0.20;0.20;;;;;;;;;;5043129;28;20233;-66
2021/11/30 01:10:41;;;;;;;0.10;0.10;;;;;;;;;;5029668;28;20217;-66
2021/11/30 01:13:08;;;;;;;0.20;0.20;;;;;;;;;;5033201;28;20209;-66
2021/11/30 01:15:34;;;;;;;0.20;0.20;;;;;;;;;;5023529;28;20349;-66
2021/11/30 01:18:00;;;;;;;0.20;0.20;;;;;;;;;;5033865;28;20226;-66
2021/11/30 01:20:28;;;;;;;0.20;0.20;;;;;;;;;;5032797;28;20308;-66
2021/11/30 01:22:56;;;;;;;0.20;0.20;;;;;;;;;;5034690;28;20238;-66
2021/11/30 01:25:22;;;;;;;0.20;0.20;;;;;;;;;;5037293;28;20210;-67
2021/11/30 01:27:49;;;;;;;0.20;0.20;;;;;;;;;;5027878;28;20505;-67
2021/11/30 01:30:16;;;;;;;0.20;0.20;;;;;;;;;;5022984;28;20206;-66
2021/11/30 01:32:43;;;;;;;0.20;0.20;;;;;;;;;;5036055;28;20371;-66
2021/11/30 01:35:10;;;;;;;0.20;0.20;;;;;;;;;;5023925;28;20212;-66
2021/11/30 01:37:39;;;;;;;0.10;0.10;;;;;;;;;;5034229;28;20226;-66
2021/11/30 01:40:07;;;;;;;0.20;0.20;;;;;;;;;;5028911;28;20233;-65
2021/11/30 01:42:34;;;;;;;0.20;0.20;;;;;;;;;;5033135;28;20423;-67
2021/11/30 01:45:05;;;;;;;0.20;0.20;;;;;;;;;;5025233;28;20214;-66
2021/11/30 01:47:53;;;;;;;0.10;0.10;;;;;;;;;;5031079;28;20513;-66
2021/11/30 01:50:20;;;;;;;0.37;0.37;;;;;;;;;;5036267;28;20240;-66
2021/11/30 01:52:50;;;;;;;0.20;0.20;;;;;;;;;;5037848;28;20222;-66
2021/11/30 01:55:16;;;;;;;0.20;0.20;;;;;;;;;;5030097;28;20274;-66
2021/11/30 01:57:43;;;;;;;0.20;0.20;;;;;;;;;;5036658;28;20592;-66
2021/11/30 02:00:10;;;;;;;0.20;0.20;;;;;;;;;;5023091;28;20209;-67
2021/11/30 02:02:37;;;;;;;0.20;0.20;;;;;;;;;;5039705;28;20489;-65
2021/11/30 02:05:04;;;;;;;0.20;0.20;;;;;;;;;;5033663;28;20567;-66
2021/11/30 02:07:30;;;;;;;0.20;0.20;;;;;;;;;;5032911;28;20200;-66
2021/11/30 02:09:58;;;;;;;0.20;0.20;;;;;;;;;;5030592;28;20543;-65
2021/11/30 02:12:24;;;;;;;0.20;0.20;;;;;;;;;;5030359;28;20209;-66
2021/11/30 02:14:52;;;;;;;0.10;0.10;;;;;;;;;;5022649;28;20245;-66
2021/11/30 02:17:19;;;;;;;0.20;0.20;;;;;;;;;;5034245;28;20227;-66
2021/11/30 02:19:53;;;;;;;0.20;0.20;;;;;;;;;;5039417;28;20258;-65
2021/11/30 02:22:19;;;;;;;0.20;0.20;;;;;;;;;;5032453;28;20478;-65
2021/11/30 02:24:46;;;;;;;0.20;0.20;;;;;;;;;;5038915;28;20270;-66
2021/11/30 02:27:12;;;;;;;0.20;0.20;;;;;;;;;;5031606;28;20209;-66
2021/11/30 02:29:39;;;;;;;0.20;0.20;;;;;;;;;;5026774;28;20557;-66
2021/11/30 02:32:06;;;;;;;0.20;0.20;;;;;;;;;;5022888;28;20206;-66
2021/11/30 02:34:32;;;;;;;0.20;0.20;;;;;;;;;;5032869;28;20328;-66
2021/11/30 02:37:06;;;;;;;0.20;0.20;;;;;;;;;;5031204;28;20230;-66
2021/11/30 02:39:33;;;;;;;0.20;0.20;;;;;;;;;;5041844;28;20200;-66
2021/11/30 02:42:01;;;;;;;0.10;0.10;;;;;;;;;;5034887;28;20206;-66
2021/11/30 02:44:28;;;;;;;0.20;0.20;;;;;;;;;;5034502;28;20205;-67
2021/11/30 02:46:55;;;;;;;1.50;1.03;;;;;;;;;;5037131;28;20209;-67
2021/11/30 02:49:22;;;;;;;0.20;0.20;;;;;;;;;;5031774;28;20205;-66
2021/11/30 02:51:51;;;;;;;0.20;0.20;;;;;;;;;;5034234;28;20492;-66
2021/11/30 02:54:20;;;;;;;0.20;0.20;;;;;;;;;;5027126;28;20252;-67
2021/11/30 02:56:48;;;;;;;0.20;0.20;;;;;;;;;;5029512;28;20290;-65
2021/11/30 02:59:15;;;;;;;0.20;0.20;;;;;;;;;;5031783;28;20507;-66
2021/11/30 03:01:42;;;;;;;0.20;0.20;;;;;;;;;;5040018;28;20202;-66
2021/11/30 03:04:12;;;;;;;0.20;0.20;;;;;;;;;;5029868;28;20205;-66
2021/11/30 03:06:38;;;;;;;0.20;0.20;;;;;;;;;;5028409;28;20208;-66
2021/11/30 03:09:05;;;;;;;0.20;0.20;;;;;;;;;;5045112;28;20229;-67
2021/11/30 03:11:33;;;;;;;0.20;0.20;;;;;;;;;;5031072;28;20522;-66
2021/11/30 03:14:02;;;;;;;0.20;0.20;;;;;;;;;;5033060;28;20536;-65
2021/11/30 03:16:28;;;;;;;0.20;0.20;;;;;;;;;;5026884;28;20285;-67
2021/11/30 03:18:55;;;;;;;0.10;0.10;;;;;;;;;;5031933;28;20264;-65
2021/11/30 03:21:21;;;;;;;0.20;0.20;;;;;;;;;;5040400;28;20302;-65
2021/11/30 03:23:48;;;;;;;0.20;0.20;;;;;;;;;;5039465;28;20205;-65
2021/11/30 03:26:15;;;;;;;0.30;0.30;;;;;;;;;;5025733;28;20268;-66
2021/11/30 03:28:43;;;;;;;0.20;0.20;;;;;;;;;;5034191;28;20225;-66
2021/11/30 03:31:10;;;;;;;0.20;0.20;;;;;;;;;;5025015;28;20284;-66
2021/11/30 03:36:20;;;;;;;0.20;0.20;;;;;;;;;;5030181;28;20220;-66
2021/11/30 03:38:47;;;;;;;0.10;0.10;;;;;;;;;;5035247;28;20225;-66
2021/11/30 03:41:13;;;;;;;0.20;0.20;;;;;;;;;;5030194;28;20205;-66
2021/11/30 03:43:40;;;;;;;0.20;0.20;;;;;;;;;;5036988;28;20240;-65
2021/11/30 03:46:07;;;;;;;0.20;0.20;;;;;;;;;;5032652;28;20236;-66
2021/11/30 03:48:34;;;;;;;0.20;0.20;;;;;;;;;;5035343;28;20200;-65
2021/11/30 03:51:00;;;;;;;0.20;0.20;;;;;;;;;;5031083;28;20205;-65
2021/11/30 03:53:27;;;;;;;0.20;0.20;;;;;;;;;;5037604;28;20489;-66
2021/11/30 03:55:53;;;;;;;0.20;0.20;;;;;;;;;;5025024;28;20432;-66
2021/11/30 03:58:20;;;;;;;0.20;0.20;;;;;;;;;;5037947;28;20224;-66
2021/11/30 04:00:46;;;;;;;0.20;0.20;;;;;;;;;;5024827;28;20392;-65
2021/11/30 04:03:14;;;;;;;0.20;0.20;;;;;;;;;;5026401;28;20213;-65
2021/11/30 04:05:41;;;;;;;0.20;0.20;;;;;;;;;;5029230;28;20222;-66
2021/11/30 04:08:07;;;;;;;0.20;0.20;;;;;;;;;;5039669;28;20202;-65
2021/11/30 04:10:34;;;;;;;0.20;0.20;;;;;;;;;;5025132;28;20202;-66
2021/11/30 04:13:00;;;;;;;0.20;0.20;;;;;;;;;;5038826;28;20204;-66
2021/11/30 04:15:26;;;;;;;0.20;0.20;;;;;;;;;;5027826;28;20360;-66
2021/11/30 04:17:53;;;;;;;0.20;0.20;;;;;;;;;;5035057;28;20225;-67
2021/11/30 04:20:21;;;;;;;0.67;0.50;;;;;;;;;;5024047;28;20205;-66
2021/11/30 04:22:47;;;;;;;0.20;0.20;;;;;;;;;;5030739;28;20206;-65
2021/11/30 04:25:14;;;;;;;0.20;0.20;;;;;;;;;;5027761;28;20213;-66
2021/11/30 04:27:41;;;;;;;0.20;0.20;;;;;;;;;;5040926;28;20200;-65
2021/11/30 04:30:11;;;;;;;0.20;0.20;;;;;;;;;;5033104;28;20205;-65
2021/11/30 04:32:37;;;;;;;0.20;0.20;;;;;;;;;;5041566;28;20342;-65
2021/11/30 04:35:04;;;;;;;0.40;0.40;;;;;;;;;;5034081;28;20209;-66
2021/11/30 04:37:32;;;;;;;0.20;0.20;;;;;;;;;;5025312;28;20235;-65
2021/11/30 04:39:58;;;;;;;0.20;0.20;;;;;;;;;;5035463;28;20239;-66
2021/11/30 04:42:27;;;;;;;0.20;0.20;;;;;;;;;;5030114;28;20303;-66
2021/11/30 04:44:59;;;;;;;0.20;0.20;;;;;;;;;;5036866;28;20205;-66
2021/11/30 04:47:28;;;;;;;0.40;0.40;;;;;;;;;;5024144;28;20217;-66
2021/11/30 04:49:57;;;;;;;0.20;0.20;;;;;;;;;;5027774;28;20205;-66
2021/11/30 04:52:24;;;;;;;0.20;0.20;;;;;;;;;;5031095;28;20235;-66
2021/11/30 04:54:52;;;;;;;0.20;0.20;;;;;;;;;;5038723;28;20269;-65
2021/11/30 04:57:18;;;;;;;0.20;0.20;;;;;;;;;;5023186;28;20544;-66
2021/11/30 04:59:45;;;;;;;0.20;0.20;;;;;;;;;;5042462;28;20216;-67
2021/11/30 05:02:11;;;;;;;0.20;0.20;;;;;;;;;;5033845;28;20205;-66
2021/11/30 05:04:38;;;;;;;0.20;0.20;;;;;;;;;;5036770;28;20235;-66
2021/11/30 05:07:05;;;;;;;0.20;0.20;;;;;;;;;;5025129;28;20216;-66
2021/11/30 05:09:31;;;;;;;0.20;0.20;;;;;;;;;;5035277;28;20510;-66
2021/11/30 05:11:59;;;;;;;0.20;0.20;;;;;;;;;;5023638;28;20209;-66
2021/11/30 05:14:26;;;;;;;0.20;0.20;;;;;;;;;;5029217;28;20209;-66
2021/11/30 05:16:52;;;;;;;0.20;0.20;;;;;;;;;;5025448;28;20496;-66
2021/11/30 05:19:18;;;;;;;0.20;0.20;;;;;;;;;;5023200;28;20252;-66
2021/11/30 05:21:45;;;;;;;0.20;0.20;;;;;;;;;;5023154;28;20205;-66
2021/11/30 05:24:11;;;;;;;0.20;0.20;;;;;;;;;;5030722;28;20206;-66
2021/11/30 05:26:38;;;;;;;0.20;0.20;;;;;;;;;;5037280;28;20208;-65
2021/11/30 05:29:06;;;;;;;0.20;0.20;;;;;;;;;;5038429;28;20202;-66
2021/11/30 05:31:33;;;;;;;2.00;1.90;;;;;;;;;;5034252;28;20396;-66
2021/11/30 05:33:59;;;;;;;0.20;0.20;;;;;;;;;;5032762;28;20204;-68
2021/11/30 05:36:26;;;;;;;0.20;0.20;;;;;;;;;;5022919;28;20201;-66
2021/11/30 05:38:53;;;;;;;0.30;0.30;;;;;;;;;;5035773;28;20496;-66
2021/11/30 05:41:19;;;;;;;0.20;0.20;;;;;;;;;;5037362;28;20201;-66
2021/11/30 05:43:45;;;;;;;0.20;0.20;;;;;;;;;;5023101;28;20397;-66
2021/11/30 05:46:13;;;;;;;0.20;0.20;;;;;;;;;;5027236;28;20234;-66
2021/11/30 05:48:40;;;;;;;0.20;0.20;;;;;;;;;;5035153;28;20244;-65
2021/11/30 05:51:06;;;;;;;0.20;0.20;;;;;;;;;;5040690;28;20488;-67
2021/11/30 05:53:33;;;;;;;0.20;0.20;;;;;;;;;;5022842;28;20246;-67
2021/11/30 05:56:01;;;;;;;0.20;0.20;;;;;;;;;;5022651;28;20300;-67
2021/11/30 05:58:29;;;;;;;0.20;0.20;;;;;;;;;;5027203;28;20225;-67
2021/11/30 06:01:01;;;;;;;0.43;0.43;;;;;;;;;;5022791;28;20205;-65
2021/11/30 06:03:32;;;;;;;0.20;0.20;;;;;;;;;;5039751;28;20205;-66
2021/11/30 06:05:58;;;;;;;0.20;0.20;;;;;;;;;;5042465;28;20254;-65
2021/11/30 06:08:25;;;;;;;0.20;0.20;;;;;;;;;;5032676;28;20229;-65
2021/11/30 06:10:51;;;;;;;0.30;0.30;;;;;;;;;;5028262;28;20228;-66
2021/11/30 06:13:17;;;;;;;0.20;0.20;;;;;;;;;;5030843;28;20216;-66
2021/11/30 06:15:44;;;;;;;0.20;0.20;;;;;;;;;;5037504;28;20235;-65
2021/11/30 06:18:10;;;;;;;0.20;0.20;;;;;;;;;;5027131;28;20225;-66
2021/11/30 06:20:38;;;;;;;0.20;0.20;;;;;;;;;;5036488;28;20228;-67
2021/11/30 06:23:04;;;;;;;0.20;0.20;;;;;;;;;;5039456;28;20236;-66
2021/11/30 06:25:31;;;;;;;0.20;0.20;;;;;;;;;;5027462;28;20202;-66
2021/11/30 06:27:57;;;;;;;0.20;0.20;;;;;;;;;;5032065;28;20522;-66
2021/11/30 06:30:24;;;;;;;0.20;0.20;;;;;;;;;;5046137;28;20393;-66
2021/11/30 06:32:50;;;;;;;0.20;0.20;;;;;;;;;;5034273;28;20236;-66
2021/11/30 06:35:16;;;;;;;0.20;0.20;;;;;;;;;;5026213;28;20205;-65
2021/11/30 06:37:44;;;;;;;0.20;0.20;;;;;;;;;;5029321;28;20449;-66
2021/11/30 06:40:11;;;;;;;0.20;0.20;;;;;;;;;;5036176;28;20209;-66
2021/11/30 06:42:38;;;;;;;0.20;0.20;;;;;;;;;;5028617;28;20217;-65
2021/11/30 06:45:04;;;;;;;0.20;0.20;;;;;;;;;;5037859;28;20209;-65
2021/11/30 06:47:31;;;;;;;0.20;0.20;;;;;;;;;;5029276;28;20205;-66
2021/11/30 06:49:57;;;;;;;0.20;0.20;;;;;;;;;;5034782;28;20236;-65
2021/11/30 06:52:24;;;;;;;0.20;0.20;;;;;;;;;;5038116;28;20204;-65
2021/11/30 06:54:54;;;;;;;0.90;0.90;;;;;;;;;;5027196;28;20217;-66
2021/11/30 06:57:21;;;;;;;0.20;0.20;;;;;;;;;;5036871;28;20206;-66
2021/11/30 06:59:48;;;;;;;0.20;0.20;;;;;;;;;;5045730;28;20223;-66
2021/11/30 07:02:15;;;;;;;0.23;0.23;;;;;;;;;;5041247;28;20201;-66
2021/11/30 07:04:43;;;;;;;0.20;0.20;;;;;;;;;;5035618;28;20271;-66
2021/11/30 07:07:20;;;;;;;0.20;0.20;;;;;;;;;;5044683;28;20200;-65
2021/11/30 07:09:58;;;;;;;0.20;0.20;;;;;;;;;;5043051;28;20215;-66
2021/11/30 07:12:46;;;;;;;0.20;0.20;;;;;;;;;;5043505;28;20457;-65
2021/11/30 07:15:13;;;;;;;0.60;0.60;;;;;;;;;;5035501;28;20389;-66
2021/11/30 07:17:39;;;;;;;0.20;0.20;;;;;;;;;;5030265;28;20208;-68
2021/11/30 07:20:06;;;;;;;0.80;0.80;;;;;;;;;;5036271;28;20247;-67
2021/11/30 07:22:33;;;;;;;0.20;0.20;;;;;;;;;;5040239;28;20369;-67
2021/11/30 07:24:59;;;;;;;0.20;0.20;;;;;;;;;;5037175;28;20251;-67
2021/11/30 07:27:27;;;;;;;0.20;0.20;;;;;;;;;;5036517;28;20209;-67
2021/11/30 07:29:54;;;;;;;0.20;0.20;;;;;;;;;;5036355;28;20212;-65
2021/11/30 07:32:20;;;;;;;0.20;0.20;;;;;;;;;;5031438;28;20201;-67
2021/11/30 07:34:47;;;;;;;0.20;0.20;;;;;;;;;;5034485;28;20243;-66
2021/11/30 07:37:14;;;;;;;0.20;0.20;;;;;;;;;;5033551;28;20327;-66
2021/11/30 07:39:40;;;;;;;0.20;0.20;;;;;;;;;;5043616;28;20292;-67
2021/11/30 07:42:07;;;;;;;0.20;0.20;;;;;;;;;;5043287;28;20205;-67
2021/11/30 07:44:35;;;;;;;0.20;0.20;;;;;;;;;;5041336;28;20209;-68
2021/11/30 07:47:01;;;;;;;0.40;0.40;;;;;;;;;;5040006;28;20260;-67
2021/11/30 07:49:27;;;;;;;0.20;0.20;;;;;;;;;;5038639;28;20204;-68
2021/11/30 07:51:54;;;;;;;0.20;0.20;;;;;;;;;;5045554;28;20378;-67
2021/11/30 07:54:20;;;;;;;0.20;0.20;;;;;;;;;;5030547;28;20217;-68
2021/11/30 07:56:48;;;;;;;0.20;0.20;;;;;;;;;;5036025;28;20201;-67
2021/11/30 07:59:14;;;;;;;0.20;0.20;;;;;;;;;;5044655;28;20411;-67
2021/11/30 08:01:42;;;;;;;0.10;0.10;;;;;;;;;;5043548;28;20208;-66
2021/11/30 08:04:09;;;;;;;0.20;0.20;;;;;;;;;;5030171;28;20210;-66
2021/11/30 08:06:35;;;;;;;0.20;0.20;;;;;;;;;;5026975;28;20205;-66
2021/11/30 08:09:02;;;;;;;0.20;0.20;;;;;;;;;;5036915;28;20208;-66
2021/11/30 08:11:28;;;;;;;0.97;0.97;;;;;;;;;;5026150;28;20218;-67
2021/11/30 08:13:54;;;;;;;0.20;0.20;;;;;;;;;;5029538;28;20208;-67
2021/11/30 08:16:21;;;;;;;0.20;0.20;;;;;;;;;;5034001;28;20204;-67
2021/11/30 08:18:49;;;;;;;0.20;0.20;;;;;;;;;;5037926;28;20228;-66
2021/11/30 08:21:15;;;;;;;0.57;0.57;;;;;;;;;;5033781;28;20227;-66
2021/11/30 08:23:42;;;;;;;0.30;0.30;;;;;;;;;;5028949;28;20213;-67
2021/11/30 08:26:12;;;;;;;0.40;0.40;;;;;;;;;;5036818;28;20457;-67
2021/11/30 08:28:38;;;;;;;0.30;0.30;;;;;;;;;;5035985;28;20316;-68
2021/11/30 08:31:05;;;;;;;0.20;0.20;;;;;;;;;;5026970;28;20200;-67
2021/11/30 08:33:31;;;;;;;0.20;0.20;;;;;;;;;;5030834;28;20493;-67
2021/11/30 08:35:59;;;;;;;0.20;0.20;;;;;;;;;;5034499;28;20204;-65
2021/11/30 08:38:26;;;;;;;0.20;0.20;;;;;;;;;;5029240;28;20273;-66
2021/11/30 08:40:52;;;;;;;0.20;0.20;;;;;;;;;;5037231;28;20201;-67
2021/11/30 08:43:19;;;;;;;0.20;0.20;;;;;;;;;;5031632;28;20213;-66
2021/11/30 08:45:45;;;;;;;0.20;0.20;;;;;;;;;;5034678;28;20202;-66
2021/11/30 08:48:12;;;;;;;0.20;0.20;;;;;;;;;;5037880;28;20227;-66
2021/11/30 08:50:38;;;;;;;0.20;0.20;;;;;;;;;;5042812;28;20204;-67
2021/11/30 08:53:06;;;;;;;0.20;0.20;;;;;;;;;;5043281;28;20209;-66
2021/11/30 08:55:32;;;;;;;0.20;0.20;;;;;;;;;;5037225;28;20216;-68
2021/11/30 08:57:59;;;;;;;0.20;0.20;;;;;;;;;;5036442;28;20204;-67
2021/11/30 09:00:27;;;;;;;0.10;0.10;;;;;;;;;;5039325;28;20535;-67
2021/11/30 09:02:54;;;;;;;0.20;0.20;;;;;;;;;;5035056;28;20209;-67
2021/11/30 09:05:21;;;;;;;0.30;0.30;;;;;;;;;;5046099;28;20228;-67
2021/11/30 09:07:47;;;;;;;0.47;0.47;;;;;;;;;;5031509;28;20226;-68
2021/11/30 09:10:15;;;;;;;0.20;0.20;;;;;;;;;;5038921;28;20196;-68
2021/11/30 09:12:42;;;;;;;0.20;0.20;;;;;;;;;;5038566;28;20278;-68
2021/11/30 09:15:09;;;;;;;0.20;0.20;;;;;;;;;;5036394;28;20414;-67
2021/11/30 09:17:37;;;;;;;0.20;0.20;;;;;;;;;;5028499;28;20212;-68
2021/11/30 09:20:04;;;;;;;0.20;0.20;;;;;;;;;;5028358;28;20260;-67
2021/11/30 09:22:31;;;;;;;0.20;0.20;;;;;;;;;;5033676;28;20201;-67
2021/11/30 09:24:58;;;;;;;0.20;0.20;;;;;;;;;;5033591;28;20273;-69
2021/11/30 09:27:26;;;;;;;0.20;0.20;;;;;;;;;;5029728;28;20244;-67
2021/11/30 09:29:53;;;;;;;0.20;0.20;;;;;;;;;;5034406;28;20448;-67
2021/11/30 09:32:20;;;;;;;0.20;0.20;;;;;;;;;;5039180;28;20206;-68
2021/11/30 09:34:47;;;;;;;0.20;0.20;;;;;;;;;;5033589;28;20222;-68
2021/11/30 09:37:13;;;;;;;0.20;0.20;;;;;;;;;;5054622;28;20226;-68
2021/11/30 09:39:39;;;;;;;0.20;0.20;;;;;;;;;;5040964;28;20226;-68
2021/11/30 09:42:07;;;;;;;0.20;0.20;;;;;;;;;;5041233;28;20247;-68
2021/11/30 09:44:35;;;;;;;0.20;0.20;;;;;;;;;;5039665;28;20211;-69
2021/11/30 09:47:01;;;;;;;0.20;0.20;;;;;;;;;;5042355;28;20220;-68
2021/11/30 09:49:28;;;;;;;0.20;0.20;;;;;;;;;;5040751;28;20205;-69
2021/11/30 09:51:55;;;;;;;0.20;0.20;;;;;;;;;;5041090;28;20205;-70
2021/11/30 09:54:21;;;;;;;0.20;0.20;;;;;;;;;;5032963;28;20232;-69
2021/11/30 09:56:48;;;;;;;0.20;0.20;;;;;;;;;;5036307;28;20201;-69
2021/11/30 09:59:14;;;;;;;0.20;0.20;;;;;;;;;;5039727;28;20242;-69
2021/11/30 10:01:42;;;;;;;0.20;0.20;;;;;;;;;;5045595;28;20234;-69
2021/11/30 10:04:08;;;;;;;0.20;0.20;;;;;;;;;;5040395;28;20217;-69
2021/11/30 10:06:35;;;;;;;0.20;0.20;;;;;;;;;;5034755;28;20214;-68
2021/11/30 10:09:01;;;;;;;0.20;0.20;;;;;;;;;;5033445;28;20212;-68
2021/11/30 10:11:30;;;;;;;0.20;0.20;;;;;;;;;;5034061;28;20458;-69
2021/11/30 10:14:10;;;;;;;0.20;0.20;;;;;;;;;;5046050;28;20205;-69
2021/11/30 10:16:36;;;;;;;0.20;0.20;;;;;;;;;;5033930;28;20209;-69
2021/11/30 10:19:04;;;;;;;0.17;0.17;;;;;;;;;;5044224;28;20244;-69
2021/11/30 10:21:31;;;;;;;0.20;0.20;;;;;;;;;;5032287;28;20277;-69
2021/11/30 10:24:01;;;;;;;0.20;0.20;;;;;;;;;;5033518;28;20501;-70
2021/11/30 10:26:30;;;;;;;0.20;0.20;;;;;;;;;;5030476;28;20207;-68
2021/11/30 10:28:57;;;;;;;0.20;0.20;;;;;;;;;;5039776;28;20233;-69
2021/11/30 10:31:28;;;;;;;0.20;0.20;;;;;;;;;;5026733;28;20244;-69
2021/11/30 10:33:54;;;;;;;0.20;0.20;;;;;;;;;;5034920;28;20260;-70
2021/11/30 10:36:22;;;;;;;0.20;0.20;;;;;;;;;;5040039;28;20250;-71
2021/11/30 10:38:49;;;;;;;0.20;0.20;;;;;;;;;;5028368;28;20502;-69
2021/11/30 10:41:16;;;;;;;0.20;0.20;;;;;;;;;;5029918;28;20240;-70
2021/11/30 10:43:50;;;;;;;0.20;0.20;;;;;;;;;;5038413;28;20202;-71
2021/11/30 10:46:24;;;;;;;0.20;0.20;;;;;;;;;;5028158;28;20249;-70
2021/11/30 10:48:51;;;;;;;0.30;0.30;;;;;;;;;;5040517;28;20213;-70
2021/11/30 10:51:17;;;;;;;0.20;0.20;;;;;;;;;;5034783;28;20207;-70
2021/11/30 10:53:46;;;;;;;0.20;0.20;;;;;;;;;;5037029;28;20221;-70
2021/11/30 10:56:13;;;;;;;0.20;0.20;;;;;;;;;;5037862;28;20210;-70
2021/11/30 10:58:40;;;;;;;0.20;0.20;;;;;;;;;;5035907;28;20214;-70
2021/11/30 11:01:07;;;;;;;0.50;0.50;;;;;;;;;;5025608;28;20417;-71
2021/11/30 11:03:34;;;;;;;0.20;0.20;;;;;;;;;;5031614;28;20277;-70
2021/11/30 11:08:47;;;;;;;0.20;0.20;;;;;;;;;;5038190;28;20261;-70
2021/11/30 11:11:16;;;;;;;0.27;0.27;;;;;;;;;;5046397;28;20243;-67
2021/11/30 11:13:42;;;;;;;0.27;0.27;;;;;;;;;;5042567;28;20256;-68
2021/11/30 11:16:10;;;;;;;0.20;0.20;;;;;;;;;;5036105;28;20256;-67
2021/11/30 11:18:37;;;;;;;0.20;0.20;;;;;;;;;;5034643;28;20226;-68
2021/11/30 11:21:17;;;;;;;0.10;0.10;;;;;;;;;;5036834;28;20230;-67
2021/11/30 11:23:44;;;;;;;0.30;0.30;;;;;;;;;;5032758;28;20220;-67
2021/11/30 11:26:20;;;;;;;0.10;0.10;;;;;;;;;;5036583;28;20244;-67
2021/11/30 11:28:47;;;;;;;0.10;0.10;;;;;;;;;;5031042;28;20256;-68
2021/11/30 11:31:13;;;;;;;0.20;0.20;;;;;;;;;;5034952;28;20201;-68
2021/11/30 11:33:40;;;;;;;0.10;0.10;;;;;;;;;;5027149;28;20411;-68
2021/11/30 11:36:07;;;;;;;0.33;0.33;;;;;;;;;;5036296;28;20204;-67
2021/11/30 11:38:33;;;;;;;0.10;0.10;;;;;;;;;;5037767;28;20256;-68
2021/11/30 11:41:00;;;;;;;0.20;0.20;;;;;;;;;;5036841;28;20238;-68
2021/11/30 11:43:28;;;;;;;0.20;0.20;;;;;;;;;;5040383;28;20206;-68
2021/11/30 11:45:55;;;;;;;0.10;0.10;;;;;;;;;;5053404;28;20213;-68
2021/11/30 11:48:23;;;;;;;0.20;0.20;;;;;;;;;;5036869;28;20491;-68
2021/11/30 11:50:50;;;;;;;0.20;0.20;;;;;;;;;;5034765;28;20219;-67
2021/11/30 11:53:24;;;;;;;0.20;0.20;;;;;;;;;;5032430;28;20453;-68
2021/11/30 11:56:14;;;;;;;0.10;0.10;;;;;;;;;;5033224;28;20242;-67
2021/11/30 11:58:43;;;;;;;0.13;0.13;;;;;;;;;;5039579;28;20198;-69
2021/11/30 12:01:14;;;;;;;0.10;0.10;;;;;;;;;;5043943;28;20269;-68
2021/11/30 12:04:00;;;;;;;0.20;0.20;;;;;;;;;;5036910;28;20200;-69
2021/11/30 12:06:27;;;;;;;0.20;0.20;;;;;;;;;;5036452;28;20392;-67
2021/11/30 12:09:13;;;;;;;2.23;1.33;;;;;;;;;;5024548;28;20506;-67
2021/11/30 12:11:40;;;;;;;0.10;0.10;;;;;;;;;;5042855;28;20208;-67
2021/11/30 12:14:15;;;;;;;0.30;0.30;;;;;;;;;;5037452;28;20222;-68
2021/11/30 12:16:59;;;;;;;0.10;0.10;;;;;;;;;;5039280;28;20263;-69
2021/11/30 12:19:26;;;;;;;0.20;0.20;;;;;;;;;;5034642;28;20207;-69
2021/11/30 12:21:53;;;;;;;0.20;0.20;;;;;;;;;;5037649;28;20212;-69
2021/11/30 12:24:31;;;;;;;0.20;0.20;;;;;;;;;;5034206;28;20278;-69
2021/11/30 12:26:57;;;;;;;0.10;0.10;;;;;;;;;;5025644;28;20238;-69
2021/11/30 12:29:36;;;;;;;0.20;0.20;;;;;;;;;;5028622;28;20506;-69
2021/11/30 12:32:14;;;;;;;0.20;0.20;;;;;;;;;;5043535;28;20210;-69
2021/11/30 12:34:44;;;;;;;0.10;0.10;;;;;;;;;;5037492;28;20208;-68
2021/11/30 12:37:11;;;;;;;0.20;0.20;;;;;;;;;;5026282;28;20207;-68
2021/11/30 12:39:53;;;;;;;0.20;0.20;;;;;;;;;;5031190;28;20204;-68
2021/11/30 12:42:19;;;;;;;0.10;0.10;;;;;;;;;;5036067;28;20208;-68
2021/11/30 12:44:48;;;;;;;0.10;0.10;;;;;;;;;;5026785;28;20507;-68
2021/11/30 12:47:19;;;;;;;0.20;0.20;;;;;;;;;;5035901;28;20211;-68
2021/11/30 12:49:46;;;;;;;0.20;0.20;;;;;;;;;;5037318;28;20241;-67
2021/11/30 12:52:14;;;;;;;0.20;0.20;;;;;;;;;;5028825;28;20212;-68
2021/11/30 12:54:43;;;;;;;0.20;0.20;;;;;;;;;;5029423;28;20219;-68
2021/11/30 12:57:11;;;;;;;0.20;0.20;;;;;;;;;;5034990;28;20210;-68
2021/11/30 12:59:59;;;;;;;0.20;0.20;;;;;;;;;;5042241;28;20241;-68
2021/11/30 13:02:27;;;;;;;0.20;0.20;;;;;;;;;;5047719;28;20210;-69
2021/11/30 13:04:55;;;;;;;0.20;0.20;;;;;;;;;;5040374;28;20305;-68
2021/11/30 13:07:23;;;;;;;0.20;0.20;;;;;;;;;;5038259;28;20223;-68
2021/11/30 13:09:49;;;;;;;0.20;0.20;;;;;;;;;;5046672;28;20231;-68
2021/11/30 13:12:18;;;;;;;0.10;0.10;;;;;;;;;;5043297;28;20207;-69
2021/11/30 13:14:44;;;;;;;0.10;0.10;;;;;;;;;;5040595;28;20257;-67
2021/11/30 13:17:12;;;;;;;0.20;0.20;;;;;;;;;;5040330;28;20254;-67
2021/11/30 13:19:42;;;;;;;0.10;0.10;;;;;;;;;;5042909;28;20208;-68
2021/11/30 13:22:09;;;;;;;0.20;0.20;;;;;;;;;;5040213;28;20207;-68
2021/11/30 13:24:37;;;;;;;0.20;0.20;;;;;;;;;;5042546;28;20207;-67
2021/11/30 13:27:14;;;;;;;0.13;0.13;;;;;;;;;;5022822;28;20225;-68
2021/11/30 13:29:52;;;;;;;0.20;0.20;;;;;;;;;;5023277;28;20492;-67
2021/11/30 13:32:24;;;;;;;0.10;0.10;;;;;;;;;;5023324;28;20498;-68
2021/11/30 13:35:05;;;;;;;0.67;0.67;;;;;;;;;;5023472;28;20212;-68
2021/11/30 13:37:32;;;;;;;0.20;0.20;;;;;;;;;;5034255;28;20203;-69
2021/11/30 13:39:59;;;;;;;0.20;0.20;;;;;;;;;;5023405;28;20589;-68
2021/11/30 13:42:25;;;;;;;0.20;0.20;;;;;;;;;;5033651;28;20241;-68
2021/11/30 13:44:52;;;;;;;0.10;0.10;;;;;;;;;;5022924;28;20245;-67
2021/11/30 13:47:18;;;;;;;0.20;0.20;;;;;;;;;;5023090;28;20518;-67
2021/11/30 13:49:48;;;;;;;0.20;0.20;;;;;;;;;;5027139;28;20201;-67
2021/11/30 13:52:21;;;;;;;0.20;0.20;;;;;;;;;;5042381;28;20431;-68
2021/11/30 13:54:56;;;;;;;0.10;0.10;;;;;;;;;;5039091;28;20278;-68
2021/11/30 13:57:25;;;;;;;0.10;0.10;;;;;;;;;;5041244;28;20427;-68
2021/11/30 13:59:55;;;;;;;0.20;0.20;;;;;;;;;;5038965;28;20207;-69
2021/11/30 14:02:32;;;;;;;0.20;0.20;;;;;;;;;;5041234;28;20231;-68
2021/11/30 14:05:01;;;;;;;0.17;0.17;;;;;;;;;;5042516;28;20271;-67
2021/11/30 14:07:29;;;;;;;0.10;0.10;;;;;;;;;;5033453;28;20285;-68
2021/11/30 14:09:59;;;;;;;0.17;0.17;;;;;;;;;;5038017;28;20212;-68
2021/11/30 14:12:26;;;;;;;0.20;0.20;;;;;;;;;;5031764;28;20557;-68
2021/11/30 14:14:53;;;;;;;0.20;0.20;;;;;;;;;;5044338;28;20212;-68
2021/11/30 14:17:20;;;;;;;0.10;0.10;;;;;;;;;;5040910;28;20215;-68
2021/11/30 14:19:47;;;;;;;0.20;0.20;;;;;;;;;;5040944;28;20208;-68
2021/11/30 14:22:15;;;;;;;0.20;0.20;;;;;;;;;;5040825;28;20244;-67
2021/11/30 14:24:52;;;;;;;0.20;0.20;;;;;;;;;;5042493;28;20239;-69
2021/11/30 14:27:19;;;;;;;0.10;0.10;;;;;;;;;;5042436;28;20299;-67
2021/11/30 14:29:47;;;;;;;0.17;0.17;;;;;;;;;;5033805;28;20208;-67
2021/11/30 14:32:17;;;;;;;0.10;0.10;;;;;;;;;;5027735;28;20204;-68
2021/11/30 14:34:44;;;;;;;0.10;0.10;;;;;;;;;;5042354;28;20228;-67
2021/11/30 14:37:25;;;;;;;0.20;0.20;;;;;;;;;;5053438;28;20197;-67
2021/11/30 14:39:53;;;;;;;0.20;0.20;;;;;;;;;;5033536;28;20212;-67
2021/11/30 14:42:27;;;;;;;0.10;0.10;;;;;;;;;;5044584;28;20296;-68
2021/11/30 14:45:08;;;;;;;0.20;0.20;;;;;;;;;;5026389;28;20219;-69
2021/11/30 14:47:35;;;;;;;0.20;0.20;;;;;;;;;;5040721;28;20463;-68
2021/11/30 14:50:02;;;;;;;0.10;0.10;;;;;;;;;;5038487;28;20418;-68
2021/11/30 14:52:35;;;;;;;0.10;0.10;;;;;;;;;;5039617;28;20203;-68
2021/11/30 14:55:15;;;;;;;0.10;0.10;;;;;;;;;;5031622;28;20216;-68